Latest Weather Observations for Middle Point

IDD60801

Issued at 3:31 pm CST Sunday 11 December 2016 (issued every 30 minutes, with the page automatically refreshed every 10 minutes)

About weather observations | Map of weather stations | Latest weather observations for NT | Other Formats
Station Details ID: 014041 Name: MIDDLE POINT Lat: -12.61 Lon: 131.30 Height: 14.1 m
Data from the previous 72 hours. | See also: Recent months at Middle Point
Date/Time
CST
Temp
°C
App
Temp
°C
Dew
Point
°C
Rel
Hum
%
Delta-T
°C
Wind Press
QNH
hPa
Press
MSL
hPa
Rain since
9am
mm
Dir  Spd
km/h
Gust
km/h
Spd
kts
Gust
kts
11/03:00pm 23.3 23.9 21.0 87 1.5 W 19 35 10 19 1007.3 1007.2 22.6
11/02:49pm 25.5 26.3 19.9 71 3.6 NNE 15 32 8 17 1008.1 1008.0 5.8
11/02:30pm 30.6 33.7 23.5 66 4.9 WNW 13 22 7 12 1006.7 1006.6 0.0
11/02:00pm 33.5 34.3 21.3 48 8.2 NNW 19 24 10 13 1006.5 1006.4 0.0
11/01:30pm 34.0 36.3 23.4 54 7.4 N 17 24 9 13 1006.7 1006.6 0.0
11/01:00pm 34.4 35.4 22.1 48 8.4 N 20 33 11 18 1006.6 1006.5 0.0
11/12:30pm 34.8 37.1 20.7 43 9.5 N 9 17 5 9 1007.5 1007.4 0.0
11/12:00pm 34.8 38.1 22.5 48 8.5 NW 9 17 5 9 1008.2 1008.1 0.0
11/11:30am 34.5 38.2 23.2 51 7.9 N 9 19 5 10 1008.8 1008.7 0.0
11/11:00am 33.7 37.2 22.8 53 7.5 N 9 15 5 8 1009.2 1009.1 0.0
11/10:30am 33.7 37.5 22.8 53 7.5 ENE 7 11 4 6 1009.6 1009.5 0.0
11/10:00am 32.4 36.8 22.8 57 6.6 E 4 7 2 4 1010.0 1009.9 0.0
11/09:30am 32.0 36.5 23.0 59 6.2 WSW 4 9 2 5 1009.9 1009.8 0.0
11/09:00am 31.4 36.0 23.2 61 5.7 WNW 4 9 2 5 1009.7 1009.6 0.0
11/08:30am 30.2 35.3 23.4 67 4.7 NW 2 6 1 3 1009.5 1009.4 0.0
11/08:00am 29.3 33.8 23.0 69 4.3 NE 4 6 2 3 1009.4 1009.3 0.0
11/07:30am 28.5 33.2 22.0 68 4.4 CALM 0 0 0 0 1009.3 1009.2 0.0
11/07:00am 27.0 31.8 22.2 75 3.2 CALM 0 0 0 0 1008.9 1008.8 0.0
11/06:30am 26.1 31.4 23.0 83 2.1 CALM 0 0 0 0 1008.9 1008.8 0.0
11/06:00am 26.0 31.2 22.9 83 2.1 CALM 0 0 0 0 1008.2 1008.1 0.0
11/05:30am 26.5 31.6 22.6 79 2.6 CALM 0 0 0 0 1007.8 1007.7 0.0
11/05:00am 26.4 31.3 23.1 82 2.2 SSE 2 6 1 3 1007.4 1007.3 0.0
11/04:30am 26.9 31.7 24.2 85 1.9 S 6 11 3 6 1007.0 1006.9 0.0
11/04:00am 26.6 32.7 24.4 88 1.5 CALM 0 0 0 0 1006.9 1006.8 0.0
11/03:30am 26.8 32.8 24.3 86 1.7 CALM 0 2 0 1 1007.0 1006.9 0.0
11/03:00am 26.8 32.3 24.1 85 1.9 NNW 2 2 1 1 1007.0 1006.9 0.0
11/02:30am 27.0 32.4 24.5 86 1.7 N 4 6 2 3 1007.0 1006.9 0.0
11/02:00am 27.1 32.4 24.4 85 1.9 W 4 6 2 3 1007.2 1007.1 0.0
11/01:30am 26.6 31.1 23.7 84 2.0 WNW 6 6 3 3 1006.9 1006.8 0.0
11/01:00am 27.1 32.0 24.4 85 1.9 NW 6 7 3 4 1007.2 1007.1 0.0
11/12:30am 27.1 31.7 24.2 84 2.0 W 7 9 4 5 1008.3 1008.2 0.0
11/12:00am 27.7 33.1 23.9 80 2.6 SW 2 6 1 3 1008.6 1008.5 0.0
 
Date/Time
CST
Temp
°C
App
Temp
°C
Dew
Point
°C
Rel
Hum
%
Delta-T
°C
Wind Press
QNH
hPa
Press
MSL
hPa
Rain since
9am
mm
Dir  Spd
km/h
Gust
km/h
Spd
kts
Gust
kts
10/11:30pm 27.9 33.7 23.9 79 2.8 CALM 0 2 0 1 1008.6 1008.5 0.0
10/11:00pm 28.1 32.9 24.1 79 2.8 N 6 6 3 3 1008.3 1008.2 0.0
10/10:30pm 28.0 32.0 23.8 78 2.9 N 9 13 5 7 1008.1 1008.0 0.0
10/10:00pm 28.0 33.5 24.6 82 2.4 NNW 4 4 2 2 1007.9 1007.8 0.0
10/09:30pm 28.3 33.9 24.3 79 2.8 N 2 4 1 2 1007.8 1007.7 0.0
10/09:00pm 28.7 34.3 24.3 77 3.1 N 2 2 1 1 1007.5 1007.4 0.0
10/08:30pm 29.1 34.5 23.8 73 3.7 N 2 2 1 1 1007.4 1007.3 0.0
10/08:00pm 29.6 34.7 24.0 72 3.9 NNW 4 6 2 3 1007.0 1006.9 0.0
10/07:30pm 30.5 35.0 23.9 68 4.6 NW 7 11 4 6 1006.6 1006.5 0.0
10/07:00pm 31.6 35.5 22.9 60 6.0 NW 7 11 4 6 1006.5 1006.4 0.0
10/06:30pm 33.0 35.9 22.4 53 7.3 NNW 11 17 6 9 1005.9 1005.8 0.0
10/06:00pm 34.0 36.2 21.8 49 8.3 NNW 13 17 7 9 1005.6 1005.5 0.0
10/05:30pm 34.1 36.6 23.2 53 7.6 NNW 15 22 8 12 1005.3 1005.2 0.0
10/05:00pm 36.0 38.2 20.3 40 10.5 N 9 11 5 6 1005.1 1005.0 0.0
10/04:30pm 35.6 37.4 18.7 37 11.1 NNW 7 11 4 6 1005.3 1005.2 0.0
10/04:00pm 36.7 38.9 18.3 34 12.1 ESE 4 7 2 4 1005.3 1005.2 0.0
10/03:30pm 37.6 39.5 18.6 33 12.6 N 6 11 3 6 1005.6 1005.5 0.0
10/03:00pm 37.4 39.6 18.4 32 12.5 SW 4 11 2 6 1005.8 1005.7 0.0
10/02:30pm 36.7 38.3 18.3 34 12.1 S 7 13 4 7 1006.4 1006.3 0.0
10/02:00pm 36.2 37.0 17.4 33 12.2 ENE 9 15 5 8 1007.0 1006.9 0.0
10/01:30pm 35.8 37.5 19.3 38 10.9 NE 9 17 5 9 1007.4 1007.3 0.0
10/01:00pm 36.4 39.3 20.6 39 10.7 NW 6 19 3 10 1008.0 1007.9 0.0
10/12:30pm 35.0 37.4 20.9 43 9.5 NNE 9 17 5 9 1008.5 1008.4 0.0
10/12:00pm 34.3 37.2 21.0 45 9.0 NNW 7 15 4 8 1009.2 1009.1 0.0
10/11:30am 34.1 36.5 20.8 45 9.0 NE 9 17 5 9 1009.8 1009.7 0.0
10/11:00am 34.3 37.7 21.0 45 9.0 NW 4 6 2 3 1010.2 1010.1 0.0
10/10:30am 33.5 37.8 22.6 53 7.5 S 4 9 2 5 1010.4 1010.3 0.0
10/10:00am 32.7 36.0 21.5 51 7.6 SSE 6 11 3 6 1010.6 1010.5 0.0
10/09:30am 31.2 35.3 22.2 58 6.1 ESE 4 7 2 4 1010.9 1010.7 0.0
10/09:00am 31.5 35.7 23.1 61 5.8 SE 6 11 3 6 1011.0 1010.8 0.0
10/08:30am 30.0 33.5 22.9 65 4.9 SE 9 13 5 7 1010.9 1010.7 0.0
10/08:00am 29.2 33.3 23.9 73 3.7 SSE 9 11 5 6 1010.4 1010.3 0.0
10/07:30am 27.1 31.6 23.6 81 2.4 S 6 6 3 3 1010.0 1009.9 0.0
10/07:00am 26.0 31.3 23.7 87 1.6 SSW 2 4 1 2 1009.8 1009.7 0.0
10/06:30am 24.3 28.9 22.4 89 1.3 ESE 2 4 1 2 1009.0 1008.9 0.0
10/06:00am 24.4 28.8 22.8 91 1.1 E 4 6 2 3 1008.4 1008.3 0.0
10/05:30am 23.9 28.6 22.0 89 1.3 CALM 0 0 0 0 1008.1 1008.0 0.0
10/05:00am 24.1 28.8 22.0 88 1.4 CALM 0 2 0 1 1007.9 1007.8 0.0
10/04:30am 24.8 29.9 22.7 88 1.4 CALM 0 0 0 0 1007.7 1007.6 0.0
10/04:00am 24.7 29.8 22.6 88 1.4 CALM 0 0 0 0 1007.4 1007.3 0.0
10/03:30am 24.7 28.6 22.6 88 1.4 NE 6 7 3 4 1007.2 1007.1 0.0
10/03:00am 25.4 30.5 22.7 85 1.8 CALM 0 0 0 0 1007.3 1007.2 0.0
10/02:30am 25.9 31.2 23.0 84 2.0 CALM 0 0 0 0 1007.5 1007.4 0.0
10/02:00am 26.2 31.4 22.9 82 2.2 CALM 0 0 0 0 1007.8 1007.7 0.0
10/01:30am 26.0 30.7 22.7 82 2.2 NW 2 4 1 2 1008.1 1008.0 0.0
10/01:00am 26.1 30.5 22.8 82 2.2 NW 4 6 2 3 1007.9 1007.8 0.0
10/12:30am 26.2 30.2 23.1 83 2.1 WSW 7 9 4 5 1008.4 1008.3 0.0
10/12:00am 26.3 30.3 22.8 81 2.4 W 6 6 3 3 1008.4 1008.3 0.0
 
Date/Time
CST
Temp
°C
App
Temp
°C
Dew
Point
°C
Rel
Hum
%
Delta-T
°C
Wind Press
QNH
hPa
Press
MSL
hPa
Rain since
9am
mm
Dir  Spd
km/h
Gust
km/h
Spd
kts
Gust
kts
09/11:30pm 26.3 30.1 22.4 79 2.6 WNW 6 7 3 4 1008.3 1008.2 0.0
09/11:00pm 26.6 30.1 22.2 77 3.0 NNW 7 9 4 5 1008.2 1008.1 0.0
09/10:30pm 26.8 30.3 22.2 76 3.1 NNW 7 9 4 5 1008.0 1007.9 0.0
09/10:00pm 27.5 31.1 22.4 73 3.4 N 7 9 4 5 1008.0 1007.9 0.0
09/09:30pm 27.9 31.4 22.2 71 3.8 N 7 9 4 5 1007.8 1007.7 0.0
09/09:00pm 28.8 31.6 21.6 65 4.8 N 9 13 5 7 1007.9 1007.8 0.0
09/08:30pm 29.0 31.3 20.7 61 5.5 N 9 11 5 6 1007.5 1007.4 0.0
09/08:00pm 30.0 31.8 20.3 56 6.4 NNE 11 17 6 9 1007.0 1006.9 0.0
09/07:30pm 30.3 31.9 20.0 54 6.8 N 11 13 6 7 1006.5 1006.4 0.0
09/07:00pm 31.0 32.1 19.7 51 7.4 N 13 19 7 10 1006.0 1005.9 0.0
09/06:30pm 32.0 33.3 19.3 47 8.3 NNE 11 15 6 8 1005.7 1005.6 0.0
09/06:00pm 33.4 33.3 18.7 41 9.6 N 17 22 9 12 1005.3 1005.2 0.0
09/05:30pm 34.0 34.5 20.0 43 9.3 NNE 17 22 9 12 1005.0 1004.9 0.0
09/05:00pm 34.4 34.3 20.0 42 9.6 N 20 28 11 15 1004.8 1004.7 0.0
09/04:30pm 34.8 35.7 21.5 46 9.1 NNE 19 26 10 14 1004.6 1004.5 0.0
09/04:00pm 34.5 34.8 21.5 46 8.8 NNE 22 30 12 16 1004.8 1004.7 0.0
09/03:30pm 34.6 35.5 22.6 49 8.3 N 22 30 12 16 1005.1 1005.0 0.0
09/03:11pm 33.3 33.3 22.4 52 7.5 NNE 26 35 14 19 1005.1 1005.0 0.0
09/03:00pm 35.8 37.9 20.1 40 10.5 N 9 15 5 8 1005.4 1005.3 0.0
09/02:30pm 35.8 37.5 20.1 40 10.5 N 11 20 6 11 1005.8 1005.7 0.0
09/02:00pm 34.5 35.8 20.1 43 9.6 NNW 13 19 7 10 1006.0 1005.9 0.0
09/01:30pm 36.1 37.5 21.1 41 10.2 NNE 15 26 8 14 1006.3 1006.2 0.0
09/01:00pm 36.0 37.8 21.1 42 10.1 NE 13 22 7 12 1006.7 1006.6 0.0
09/12:30pm 36.2 37.8 18.3 34 11.7 ENE 7 17 4 9 1007.2 1007.1 0.0
09/12:00pm 35.0 38.2 21.3 45 9.3 SSW 6 13 3 7 1007.6 1007.5 0.0
09/11:30am 34.1 37.4 21.5 47 8.6 N 6 9 3 5 1008.0 1007.9 0.0
09/11:00am 32.5 36.6 22.3 55 7.0 N 4 9 2 5 1008.3 1008.2 0.0
09/10:30am 32.6 36.9 22.7 56 6.8 SE 4 6 2 3 1008.3 1008.2 0.0
09/10:00am 32.6 36.9 22.7 56 6.8 N 4 9 2 5 1008.9 1008.8 0.0
09/09:30am 32.0 37.2 23.5 60 5.9 N 2 6 1 3 1008.9 1008.8 0.0
09/09:00am 30.7 36.0 24.4 69 4.4 NNW 4 6 2 3 1008.9 1008.8 0.0
09/08:30am 30.6 35.3 24.0 68 4.6 NNW 6 9 3 5 1008.9 1008.8 0.0
09/08:00am 29.7 35.2 24.1 72 3.9 NNW 2 4 1 2 1008.7 1008.6 0.0
09/07:30am 28.1 34.1 24.3 80 2.6 CALM 0 0 0 0 1008.1 1008.0 0.0
09/07:00am 26.3 32.0 23.8 86 1.7 CALM 0 0 0 0 1007.9 1007.8 0.0
09/06:30am 25.0 30.2 22.9 88 1.4 CALM 0 0 0 0 1007.6 1007.5 0.0
09/06:00am 24.9 30.1 22.8 88 1.4 CALM 0 0 0 0 1007.1 1007.0 0.0
09/05:30am 24.7 29.9 22.8 89 1.3 CALM 0 2 0 1 1006.6 1006.5 0.0
09/05:00am 24.6 29.2 22.5 88 1.4 N 2 4 1 2 1006.4 1006.3 0.0
09/04:30am 24.6 29.4 22.1 86 1.7 CALM 0 0 0 0 1006.2 1006.1 0.0
09/04:00am 25.1 30.4 23.0 88 1.4 CALM 0 0 0 0 1006.3 1006.2 0.0
09/03:30am 25.2 30.3 22.7 86 1.7 CALM 0 0 0 0 1006.5 1006.4 0.0
09/03:00am 25.5 30.9 23.2 87 1.6 CALM 0 0 0 0 1006.5 1006.4 0.0
09/02:30am 25.2 30.0 22.9 87 1.6 ENE 2 6 1 3 1006.4 1006.3 0.0
09/02:00am 25.3 30.4 22.6 85 1.8 CALM 0 2 0 1 1006.6 1006.5 0.0
09/01:30am 25.8 30.1 22.7 83 2.1 ENE 4 6 2 3 1006.9 1006.8 0.0
09/01:00am 25.9 30.1 22.4 81 2.4 N 4 7 2 4 1006.9 1006.8 0.0
09/12:30am 26.1 29.6 22.2 79 2.6 NNE 7 9 4 5 1006.9 1006.8 0.0
09/12:00am 25.9 29.7 22.8 83 2.1 N 7 7 4 4 1007.1 1007.0 0.0
 
Date/Time
CST
Temp
°C
App
Temp
°C
Dew
Point
°C
Rel
Hum
%
Delta-T
°C
Wind Press
QNH
hPa
Press
MSL
hPa
Rain since
9am
mm
Dir  Spd
km/h
Gust
km/h
Spd
kts
Gust
kts
08/11:30pm 26.3 31.3 23.2 83 2.1 WNW 2 4 1 2 1006.9 1006.8 0.0
08/11:00pm 26.5 31.6 22.6 79 2.6 CALM 0 2 0 1 1006.6 1006.5 0.0
08/10:30pm 26.6 30.5 22.9 80 2.5 N 7 11 4 6 1006.7 1006.6 0.0
08/10:00pm 27.2 31.5 22.6 76 3.1 WNW 4 4 2 2 1006.3 1006.2 0.0
08/09:30pm 27.4 31.5 23.0 77 3.0 WNW 6 6 3 3 1006.1 1006.0 0.0
08/09:00pm 28.7 32.9 23.4 73 3.6 WSW 7 9 4 5 1005.8 1005.7 0.0
08/08:30pm 29.2 33.7 23.9 73 3.7 WNW 7 9 4 5 1005.6 1005.5 0.0
08/08:00pm 29.8 33.8 23.7 70 4.2 NW 9 13 5 7 1005.1 1005.0 0.0
08/07:30pm 30.7 34.5 23.4 65 5.0 NNW 9 13 5 7 1004.6 1004.5 0.0
08/07:00pm 31.5 34.9 23.3 61 5.7 NNW 11 15 6 8 1004.5 1004.4 0.0
08/06:30pm 32.5 34.7 22.6 56 6.8 NNW 15 20 8 11 1004.0 1003.9 0.0
08/06:00pm 33.7 35.3 22.8 53 7.5 NNW 19 28 10 15 1003.8 1003.7 0.0
08/05:30pm 34.9 36.7 22.6 49 8.5 NW 17 26 9 14 1003.6 1003.5 0.0
08/05:00pm 35.0 36.9 22.7 49 8.5 N 17 22 9 12 1003.3 1003.2 0.0
08/04:30pm 36.9 38.2 18.4 33 12.2 N 9 17 5 9 1003.2 1003.1 0.0
08/04:00pm 37.4 39.1 18.4 32 12.5 NW 7 15 4 8 1003.2 1003.1 0.0

Other Formats:

Comma delimited format used in spreadsheet applications
http://www.bom.gov.au/fwo/IDD60801/IDD60801.95121.axf

JavaScript Object Notation format (JSON) in row-major order
http://www.bom.gov.au/fwo/IDD60801/IDD60801.95121.json